Airfield :
LOGIN :

Register | Disclaimer

   EN    FR    IT 

 










Legend :    VFR   Marginal VFR   IFR   Intensive IFR   Very Intensive IFR
Visi :
Ceiling :
>= 8 km
>= 3000ft
5 to 8 km
1000 to 3000 ft
1500m to 5 km
500 to 1000 ft
800 to 1500m
200 to 500 ft
< 800m
< 200 ft
Symbols :   Thunderstorms  Fog  Heavy snow  Heavy precipitations  Wind > 20 kt
SIGMETs :     Misc.  Thunderstorms  Icing  Turbulence  Mountain Waves  Volcanic Ashes






- Airport Elevation : 326 ft
- IATA code : LCG


LECO - A Coruna

CURRENT METAR :
  • 280700Z VRB02KT 9000 -SHRA FEW015 SCT019 FEW029TCU BKN036 11/10 Q1025 RESHRA TEMPO NSW

EXPIRED METARs :
  • 280647Z 24007KT 200V290 6000 SHRA FEW015 SCT019 BKN029TCU 11/09 Q1025 TEMPO NSW
  • 280600Z 26007KT 210V020 7000 RA FEW014 SCT019 BKN026 11/09 Q1024 TEMPO NSW
  • 280530Z 25009KT 9999 FEW030 SCT043 12/08 Q1024 NOSIG
  • 280500Z 25009KT 210V290 9999 FEW032 SCT045 11/08 Q1024 NOSIG

TAF AMD TAF LECO
Valid from the 28 at 06:00 until the 29 at 03:00 UTC


280647Z 2806/2903 22009KT 9999 SCT035 TX13/2815Z TN08/2808Z
PROB40
TEMPO 2806/2815 3000 RA BKN010
PROB30
TEMPO 2806/2809 1500 SHRA SCT035TCU
BECMG 2809/2813 28010KT
PROB30
TEMPO 2815/2903 3000 RA BKN010
BECMG 2821/2901 22009KT



MET'MAP, your aeronautical weather chart ! - Copyright ORBIFLY December 2007 - Disclaimer

ORBIFLY MET'MAP TEAM :

Programming & Development : Alexandra Zaïnal
Original concept : Baudouin d'Aumeries
Technical & hardware support : Manuel Goepfert
Assistance : Marc-Olivier Méhu




SOURCES & CREDITS :

   NOAA